Time;durP1;ratioP1;P1;durP2;ratioP2;P2;SDS_P1;SDS_P2;PMS_P1;PMS_P2;Temp;Humidity;BMP_temperature;BMP_pressure;BME280_temperature;BME280_humidity;BME280_pressure;Samples;Min_cycle;Max_cycle;Signal;HPM_P1;HPM_P2
2023/06/20 00:01:00;;;;;;;7.07;6.35;;;;;;;21.91;70.28;101379.31;6241962;28;20243;-68
2023/06/20 00:04:22;;;;;;;6.43;5.88;;;;;;;21.88;70.67;101378.88;6232433;28;20240;-68
2023/06/20 00:07:43;;;;;;;6.15;5.60;;;;;;;21.82;70.67;101377.75;6239160;28;20240;-70
2023/06/20 00:11:04;;;;;;;7.05;6.03;;;;;;;21.77;70.83;101382.09;6215496;28;20259;-69
2023/06/20 00:14:25;;;;;;;8.65;5.57;;;;;;;21.70;71.33;101378.44;6230730;28;20264;-68
2023/06/20 00:17:46;;;;;;;5.43;4.93;;;;;;;21.74;71.25;101375.09;6236757;28;20240;-69
2023/06/20 00:21:09;;;;;;;6.65;6.10;;;;;;;21.77;71.65;101380.22;6220596;28;20235;-69
2023/06/20 00:24:31;;;;;;;5.75;5.25;;;;;;;21.77;71.33;101377.47;6237268;28;20561;-70
2023/06/20 00:27:51;;;;;;;7.13;6.53;;;;;;;21.69;71.73;101374.84;6244041;28;20235;-69
2023/06/20 00:31:12;;;;;;;5.80;5.30;;;;;;;21.62;71.82;101373.94;6210408;28;20235;-69
2023/06/20 00:34:33;;;;;;;6.18;5.68;;;;;;;21.72;71.87;101374.44;6232474;28;20232;-69
2023/06/20 00:37:55;;;;;;;6.53;5.93;;;;;;;21.75;71.37;101374.06;6223959;28;20595;-69
2023/06/20 00:41:16;;;;;;;6.35;5.85;;;;;;;21.56;71.55;101385.69;6223561;28;20247;-69
2023/06/20 00:44:37;;;;;;;8.32;6.68;;;;;;;21.31;71.99;101387.97;6232759;28;20231;-69
2023/06/20 00:47:59;;;;;;;7.47;6.15;;;;;;;21.20;72.42;101384.84;6242530;28;20236;-69
2023/06/20 00:51:22;;;;;;;6.50;5.93;;;;;;;21.39;72.76;101381.50;6224646;28;20228;-70
2023/06/20 00:54:46;;;;;;;6.35;5.72;;;;;;;21.51;72.55;101376.34;6234775;28;20232;-69
2023/06/20 00:58:08;;;;;;;8.90;6.38;;;;;;;21.51;72.43;101371.69;6242086;28;20231;-69
2023/06/20 01:01:31;;;;;;;8.50;6.40;;;;;;;21.44;72.21;101368.88;6234205;28;20598;-69
2023/06/20 01:04:52;;;;;;;6.97;6.35;;;;;;;21.33;72.24;101374.03;6222844;28;20645;-70
2023/06/20 01:08:21;;;;;;;6.82;6.22;;;;;;;21.17;72.54;101377.03;6248708;28;20235;-69
2023/06/20 01:11:53;;;;;;;7.45;6.75;;;;;;;21.00;73.44;101376.34;6245852;28;20224;-69
2023/06/20 01:15:23;;;;;;;6.47;5.97;;;;;;;21.15;73.49;101379.09;6235293;28;20231;-69
2023/06/20 01:18:54;;;;;;;6.47;5.97;;;;;;;21.08;73.36;101381.75;6236691;28;20235;-69
2023/06/20 01:22:29;;;;;;;6.05;5.55;;;;;;;21.13;73.32;101386.69;6243147;28;20244;-69
2023/06/20 01:25:59;;;;;;;7.47;6.00;;;;;;;21.06;73.35;101380.25;6252451;28;20231;-69
2023/06/20 01:29:32;;;;;;;6.72;5.80;;;;;;;21.05;73.78;101387.63;6235824;28;20227;-69
2023/06/20 01:32:58;;;;;;;6.65;6.05;;;;;;;21.05;73.66;101381.31;6250164;28;20227;-68
2023/06/20 01:36:21;;;;;;;8.57;6.50;;;;;;;21.19;73.35;101391.38;6216588;28;20243;-68
2023/06/20 01:39:47;;;;;;;6.78;6.03;;;;;;;21.16;73.23;101383.53;6246340;28;20231;-69
2023/06/20 01:43:12;;;;;;;6.47;5.80;;;;;;;21.17;73.20;101380.59;6256331;28;20323;-69
2023/06/20 01:46:36;;;;;;;11.27;5.95;;;;;;;21.17;73.26;101377.03;6239719;28;20235;-68
2023/06/20 01:49:58;;;;;;;6.55;6.05;;;;;;;20.89;73.21;101386.94;6239042;28;20228;-68
2023/06/20 01:53:21;;;;;;;7.38;6.65;;;;;;;20.97;73.67;101390.44;6232547;28;20237;-69
2023/06/20 01:56:45;;;;;;;8.88;6.45;;;;;;;20.97;73.67;101378.63;6234134;28;20244;-68
2023/06/20 02:00:10;;;;;;;6.93;6.22;;;;;;;20.89;73.90;101381.47;6237237;28;20236;-68
2023/06/20 02:03:35;;;;;;;6.25;5.57;;;;;;;21.01;73.81;101375.31;6230602;28;20234;-69
2023/06/20 02:06:57;;;;;;;6.75;6.10;;;;;;;20.85;73.79;101381.00;6244762;28;20241;-68
2023/06/20 02:10:22;;;;;;;7.25;6.55;;;;;;;20.88;74.35;101368.81;6206480;28;20561;-69
2023/06/20 02:13:45;;;;;;;6.80;6.15;;;;;;;20.94;74.06;101365.31;6209008;28;20240;-69
2023/06/20 02:17:08;;;;;;;8.65;6.15;;;;;;;21.00;73.83;101370.03;6227350;28;20235;-68
2023/06/20 02:20:29;;;;;;;7.15;6.55;;;;;;;20.76;73.84;101367.59;6245170;28;20354;-69
2023/06/20 02:23:52;;;;;;;6.75;6.00;;;;;;;20.62;74.54;101358.34;6218611;28;20228;-68
2023/06/20 02:27:16;;;;;;;6.90;6.20;;;;;;;20.66;74.96;101367.88;6257460;28;20262;-67
2023/06/20 02:30:38;;;;;;;9.00;6.93;;;;;;;20.64;75.12;101364.47;6177131;28;20577;-68
2023/06/20 02:34:04;;;;;;;6.85;6.15;;;;;;;20.67;75.02;101367.69;6223971;28;20235;-68
2023/06/20 02:37:27;;;;;;;6.85;5.75;;;;;;;20.73;74.87;101363.34;6228522;28;20231;-67
2023/06/20 02:40:50;;;;;;;7.75;6.95;;;;;;;20.63;74.84;101358.13;6231168;28;20687;-67
2023/06/20 02:44:11;;;;;;;7.68;6.95;;;;;;;20.51;75.09;101358.81;6230009;28;20227;-68
2023/06/20 02:47:43;;;;;;;7.65;6.97;;;;;;;20.34;75.87;101365.53;6246796;28;20621;-68
2023/06/20 02:51:11;;;;;;;9.07;7.57;;;;;;;20.64;75.70;101354.38;6203108;28;20232;-68
2023/06/20 02:54:39;;;;;;;7.18;6.47;;;;;;;20.67;75.41;101361.38;6234954;28;20263;-67
2023/06/20 02:58:02;;;;;;;7.45;6.70;;;;;;;20.67;75.20;101345.75;6238945;28;20231;-68
2023/06/20 03:01:26;;;;;;;11.80;7.07;;;;;;;20.59;75.45;101359.56;6216858;28;21411;-68
2023/06/20 03:04:56;;;;;;;7.15;6.45;;;;;;;20.46;75.62;101356.63;6233352;28;20236;-68
2023/06/20 03:08:20;;;;;;;8.52;7.72;;;;;;;20.55;75.97;101349.16;6244868;28;20625;-68
2023/06/20 03:11:41;;;;;;;7.53;6.75;;;;;;;20.82;75.52;101348.47;6244696;28;20263;-68
2023/06/20 03:15:02;;;;;;;7.03;6.28;;;;;;;20.86;75.22;101355.28;6242146;28;20315;-68
2023/06/20 03:18:23;;;;;;;7.43;6.72;;;;;;;20.87;75.05;101339.69;6255123;28;20316;-68
2023/06/20 03:21:45;;;;;;;7.70;6.93;;;;;;;20.69;75.04;101342.84;6237869;28;20224;-68
2023/06/20 03:25:09;;;;;;;10.02;9.05;;;;;;;20.51;75.53;101347.84;6228187;28;20232;-67
2023/06/20 03:28:33;;;;;;;9.57;8.77;;;;;;;20.49;76.04;101350.78;6234933;28;20326;-68
2023/06/20 03:31:54;;;;;;;7.50;6.60;;;;;;;20.59;76.11;101355.97;6246485;28;20232;-68
2023/06/20 03:35:15;;;;;;;8.55;7.70;;;;;;;20.79;76.01;101368.06;6211687;28;20231;-69
2023/06/20 03:38:42;;;;;;;10.15;9.07;;;;;;;20.73;75.61;101367.97;6239185;28;20505;-69
2023/06/20 03:42:03;;;;;;;8.85;7.95;;;;;;;20.69;75.57;101360.13;6250174;28;20232;-68
2023/06/20 03:45:26;;;;;;;9.88;8.88;;;;;;;20.73;75.90;101366.09;6234583;28;20252;-68
2023/06/20 03:48:47;;;;;;;8.40;7.28;;;;;;;20.79;75.83;101368.06;6238051;28;20275;-68
2023/06/20 03:52:08;;;;;;;8.07;7.28;;;;;;;20.90;75.54;101366.72;6228692;28;20259;-68
2023/06/20 03:55:31;;;;;;;9.07;8.25;;;;;;;20.91;75.36;101361.03;6239890;28;20224;-68
2023/06/20 03:58:52;;;;;;;7.88;7.18;;;;;;;20.77;75.28;101361.94;6238252;28;20224;-68
2023/06/20 04:02:13;;;;;;;10.52;8.57;;;;;;;20.72;75.49;101361.63;6255504;28;21397;-68
2023/06/20 04:05:34;;;;;;;9.00;7.63;;;;;;;20.70;75.54;101360.97;6229661;28;20231;-68
2023/06/20 04:08:57;;;;;;;12.68;8.10;;;;;;;20.80;75.25;101369.75;6233513;28;20240;-68
2023/06/20 04:12:19;;;;;;;7.82;6.68;;;;;;;20.86;75.15;101370.91;6242697;28;20228;-69
2023/06/20 04:15:40;;;;;;;8.73;7.20;;;;;;;21.19;74.30;101372.19;6229034;28;20232;-68
2023/06/20 04:19:01;;;;;;;8.38;7.40;;;;;;;21.21;73.95;101375.59;6223045;28;21412;-69
2023/06/20 04:22:26;;;;;;;6.43;5.82;;;;;;;21.22;73.56;101372.66;6226612;28;20259;-69
2023/06/20 04:25:48;;;;;;;7.68;7.00;;;;;;;21.35;72.98;101380.19;6239788;28;20608;-69
2023/06/20 04:29:10;;;;;;;10.43;7.70;;;;;;;21.30;72.54;101379.91;6232631;28;20279;-69
2023/06/20 04:32:33;;;;;;;8.85;8.07;;;;;;;21.16;72.41;101378.91;6228722;28;20239;-69
2023/06/20 04:35:57;;;;;;;6.82;6.13;;;;;;;21.22;72.56;101378.13;6241316;28;20255;-69
2023/06/20 04:39:18;;;;;;;13.82;12.02;;;;;;;21.22;72.46;101372.66;6221781;28;20274;-68
2023/06/20 04:42:40;;;;;;;10.25;8.98;;;;;;;21.23;72.82;101363.38;6223847;28;20240;-69
2023/06/20 04:46:03;;;;;;;8.70;7.68;;;;;;;21.42;72.55;101370.97;6232494;28;20237;-69
2023/06/20 04:49:23;;;;;;;8.27;7.45;;;;;;;21.57;72.40;101370.91;6227743;28;20250;-67
2023/06/20 04:52:44;;;;;;;11.20;7.57;;;;;;;21.67;71.90;101371.47;6247967;28;20239;-68
2023/06/20 04:56:06;;;;;;;8.02;7.22;;;;;;;21.91;70.90;101371.06;6218419;28;20240;-68
2023/06/20 04:59:27;;;;;;;6.13;5.63;;;;;;;21.92;69.44;101375.53;6225979;28;20236;-68
2023/06/20 05:02:51;;;;;;;6.78;6.00;;;;;;;21.95;69.03;101398.97;6241738;28;20260;-68
2023/06/20 05:06:16;;;;;;;5.03;4.63;;;;;;;22.03;68.77;101391.44;6238920;28;20315;-69
2023/06/20 05:09:37;;;;;;;7.40;5.70;;;;;;;22.12;68.52;101376.53;6237488;28;20228;-69
2023/06/20 05:12:58;;;;;;;4.78;4.38;;;;;;;22.30;67.45;101388.94;6246150;28;20231;-69
2023/06/20 05:16:19;;;;;;;5.88;5.03;;;;;;;22.31;67.04;101382.38;6242603;28;20260;-69
2023/06/20 05:19:42;;;;;;;7.18;5.75;;;;;;;22.38;66.76;101383.28;6231335;28;20240;-69
2023/06/20 05:23:03;;;;;;;5.45;4.95;;;;;;;22.50;66.78;101385.28;6240853;28;20240;-69
2023/06/20 05:26:24;;;;;;;5.35;4.60;;;;;;;22.81;66.15;101380.22;6224410;28;20537;-69
2023/06/20 05:29:45;;;;;;;4.85;4.45;;;;;;;22.85;65.18;101391.66;6220687;28;20237;-69
2023/06/20 05:33:06;;;;;;;5.30;4.80;;;;;;;22.84;64.59;101381.72;6232300;28;20231;-69
2023/06/20 05:36:28;;;;;;;5.22;4.72;;;;;;;22.60;63.38;101396.78;6223539;28;20232;-69
2023/06/20 05:39:49;;;;;;;4.30;3.67;;;;;;;22.71;62.36;101398.13;6230677;28;20235;-69
2023/06/20 05:43:10;;;;;;;4.20;3.80;;;;;;;22.87;61.96;101397.78;6239408;28;20561;-69
2023/06/20 05:46:31;;;;;;;5.22;4.47;;;;;;;23.02;61.42;101393.84;6235659;28;20747;-69
2023/06/20 05:49:52;;;;;;;4.30;3.88;;;;;;;23.13;61.29;101402.56;6233532;28;20235;-69
2023/06/20 05:53:14;;;;;;;4.60;4.20;;;;;;;23.15;60.44;101389.47;6246113;28;20237;-68
2023/06/20 05:56:35;;;;;;;4.03;3.30;;;;;;;23.35;60.17;101399.50;6228596;28;20621;-70
2023/06/20 05:59:56;;;;;;;3.97;3.63;;;;;;;23.28;59.66;101406.03;6233366;28;20255;-69
2023/06/20 06:03:18;;;;;;;4.55;3.88;;;;;;;23.41;59.72;101398.69;6246155;28;20241;-69
2023/06/20 06:06:39;;;;;;;3.42;3.10;;;;;;;23.68;59.91;101377.56;6226093;28;20514;-70
2023/06/20 06:10:01;;;;;;;4.55;4.15;;;;;;;23.81;58.87;101369.34;6226311;28;20247;-70
2023/06/20 06:13:22;;;;;;;4.25;3.85;;;;;;;23.72;58.48;101378.84;6243249;28;20340;-70
2023/06/20 06:16:44;;;;;;;3.85;3.55;;;;;;;23.97;57.77;101376.34;6230171;28;20243;-70
2023/06/20 06:20:09;;;;;;;4.03;3.38;;;;;;;24.15;57.47;101371.94;6233161;28;20240;-69
2023/06/20 06:23:30;;;;;;;5.38;4.32;;;;;;;24.15;56.86;101377.44;6245414;28;20232;-69
2023/06/20 06:26:53;;;;;;;8.07;7.32;;;;;;;24.31;57.08;101385.28;6232527;28;20236;-69
2023/06/20 06:30:15;;;;;;;10.35;6.20;;;;;;;24.24;56.69;101373.38;6233973;28;20232;-69
2023/06/20 06:33:36;;;;;;;5.65;3.83;;;;;;;24.25;55.97;101380.63;6245047;28;20542;-70
2023/06/20 06:36:57;;;;;;;5.18;3.90;;;;;;;24.47;54.88;101376.53;6249966;28;20227;-69
2023/06/20 06:40:20;;;;;;;3.50;3.05;;;;;;;24.65;54.47;101388.81;6229612;28;20237;-69
2023/06/20 06:43:42;;;;;;;4.03;3.63;;;;;;;24.66;53.78;101394.09;6240765;28;20326;-69
2023/06/20 06:47:05;;;;;;;3.22;2.92;;;;;;;24.40;54.72;101394.16;6248819;28;20236;-69
2023/06/20 06:50:26;;;;;;;3.17;2.88;;;;;;;24.69;54.83;101398.34;6244064;28;20235;-70
2023/06/20 06:53:47;;;;;;;3.28;3.05;;;;;;;24.99;53.76;101396.84;6249479;28;20227;-69
2023/06/20 06:57:08;;;;;;;4.60;3.30;;;;;;;25.04;52.81;101391.50;6241745;28;20311;-69
2023/06/20 07:00:31;;;;;;;5.60;2.90;;;;;;;25.09;53.32;101394.44;6235649;28;20637;-69
2023/06/20 07:03:52;;;;;;;5.28;3.97;;;;;;;25.13;53.38;101392.94;6238013;28;20834;-69
2023/06/20 07:07:13;;;;;;;3.88;3.08;;;;;;;24.86;53.62;101403.25;6238859;28;20224;-70
2023/06/20 07:10:34;;;;;;;4.25;2.55;;;;;;;24.86;53.47;101402.38;6232787;28;20519;-70
2023/06/20 07:13:55;;;;;;;4.43;3.38;;;;;;;24.82;53.45;101407.50;6232966;28;20228;-70
2023/06/20 07:17:17;;;;;;;3.50;3.20;;;;;;;24.74;53.64;101402.19;6243578;28;20325;-70
2023/06/20 07:20:38;;;;;;;6.15;3.53;;;;;;;24.91;53.50;101399.84;6228835;28;20315;-69
2023/06/20 07:23:58;;;;;;;2.97;2.75;;;;;;;25.02;54.02;101394.47;6231632;28;20243;-69
2023/06/20 07:27:19;;;;;;;3.83;3.53;;;;;;;25.13;54.01;101398.47;6232435;28;21309;-70
2023/06/20 07:30:40;;;;;;;3.47;3.17;;;;;;;25.37;54.23;101397.72;6234141;28;20339;-70
2023/06/20 07:34:02;;;;;;;4.45;3.17;;;;;;;25.53;53.46;101399.16;6233544;28;20232;-69
2023/06/20 07:37:23;;;;;;;3.10;2.78;;;;;;;25.46;54.07;101390.06;6244946;28;20239;-69
2023/06/20 07:40:44;;;;;;;3.33;3.03;;;;;;;25.54;53.98;101400.84;6227503;28;20262;-69
2023/06/20 07:44:07;;;;;;;3.40;3.10;;;;;;;25.20;53.16;101393.78;6243221;28;20235;-69
2023/06/20 07:47:28;;;;;;;3.03;2.83;;;;;;;25.29;53.43;101396.06;6248674;28;20236;-69
2023/06/20 07:50:50;;;;;;;4.65;3.70;;;;;;;25.65;52.56;101397.38;6236107;28;20239;-70
2023/06/20 07:54:11;;;;;;;7.72;7.00;;;;;;;25.52;52.24;101383.63;6240403;28;21125;-69
2023/06/20 07:57:32;;;;;;;11.05;10.05;;;;;;;25.91;51.81;101381.47;6248992;28;20224;-70
2023/06/20 08:00:56;;;;;;;6.03;3.97;;;;;;;25.92;51.69;101380.41;6227144;28;20232;-69
2023/06/20 08:04:17;;;;;;;3.55;3.25;;;;;;;25.94;51.28;101382.94;6229805;28;20358;-70
2023/06/20 08:07:39;;;;;;;3.42;3.13;;;;;;;26.19;51.24;101374.69;6243987;28;20311;-69
2023/06/20 08:11:00;;;;;;;3.28;3.05;;;;;;;26.12;50.87;101366.44;6229291;28;20342;-69
2023/06/20 08:14:20;;;;;;;4.63;3.67;;;;;;;26.29;51.45;101375.00;6233047;28;20315;-69
2023/06/20 08:17:42;;;;;;;5.13;3.17;;;;;;;26.70;50.00;101378.84;6238897;28;20319;-69
2023/06/20 08:21:03;;;;;;;3.38;3.17;;;;;;;27.34;49.62;101378.34;6222023;28;20228;-70
2023/06/20 08:24:25;;;;;;;3.47;3.10;;;;;;;27.62;49.16;101372.16;6240244;28;20235;-70
2023/06/20 08:27:46;;;;;;;4.85;3.58;;;;;;;27.63;48.72;101377.50;6249537;28;20609;-70
2023/06/20 08:31:07;;;;;;;4.13;3.72;;;;;;;27.51;48.43;101384.94;6255390;28;20318;-69
2023/06/20 08:34:27;;;;;;;5.78;3.70;;;;;;;27.74;48.03;101370.31;6235998;28;20224;-70
2023/06/20 08:37:48;;;;;;;4.07;3.67;;;;;;;27.99;48.00;101371.00;6241817;28;20614;-69
2023/06/20 08:41:11;;;;;;;3.47;3.17;;;;;;;28.01;47.94;101366.06;6254404;28;20310;-70
2023/06/20 08:44:34;;;;;;;3.80;3.50;;;;;;;27.83;48.07;101355.00;6229732;28;20240;-70
2023/06/20 08:47:58;;;;;;;4.93;4.38;;;;;;;27.90;48.09;101360.44;6243131;28;20552;-69
2023/06/20 08:51:22;;;;;;;3.97;3.58;;;;;;;27.87;48.08;101364.53;6219816;28;20227;-69
2023/06/20 08:54:46;;;;;;;3.80;2.78;;;;;;;27.94;47.79;101365.28;6234338;28;20244;-70
2023/06/20 08:58:09;;;;;;;4.40;4.03;;;;;;;27.02;48.33;101364.88;6247676;28;20240;-70
2023/06/20 09:01:30;;;;;;;4.15;3.38;;;;;;;27.48;48.75;101373.44;6235691;28;20257;-70
2023/06/20 09:05:03;;;;;;;3.63;3.33;;;;;;;27.82;48.30;101369.09;6235992;28;20248;-70
2023/06/20 09:08:25;;;;;;;4.20;3.13;;;;;;;27.18;48.21;101369.81;6246238;28;20252;-70
2023/06/20 09:11:52;;;;;;;3.88;3.58;;;;;;;27.04;49.39;101366.34;6232633;28;20258;-69
2023/06/20 09:15:14;;;;;;;2.70;2.50;;;;;;;27.34;49.25;101360.84;6243947;28;20255;-70
2023/06/20 09:18:37;;;;;;;4.53;4.13;;;;;;;27.36;48.80;101367.88;6248640;28;20231;-70
2023/06/20 09:22:04;;;;;;;3.60;3.25;;;;;;;27.08;49.83;101363.97;6248392;28;20311;-70
2023/06/20 09:25:27;;;;;;;4.07;3.78;;;;;;;27.49;49.00;101373.25;6230891;28;21080;-69
2023/06/20 09:28:48;;;;;;;5.82;5.30;;;;;;;28.09;48.57;101362.94;6249473;28;20240;-69
2023/06/20 09:32:19;;;;;;;6.93;5.22;;;;;;;28.44;47.55;101361.03;6242814;28;20326;-69
2023/06/20 09:35:40;;;;;;;3.83;3.53;;;;;;;28.32;47.41;101342.69;6230169;28;20733;-70
2023/06/20 09:39:01;;;;;;;4.72;4.32;;;;;;;28.64;47.38;101352.38;6242715;28;20231;-70
2023/06/20 09:42:23;;;;;;;4.28;3.88;;;;;;;28.82;47.03;101359.69;6241989;28;20231;-69
2023/06/20 09:45:45;;;;;;;3.88;3.53;;;;;;;28.54;46.76;101354.03;6235378;28;20514;-69
2023/06/20 09:49:07;;;;;;;5.55;4.03;;;;;;;28.64;47.38;101354.28;6239546;28;20235;-70
2023/06/20 09:52:34;;;;;;;4.15;3.85;;;;;;;27.61;49.79;101348.31;6247155;28;20540;-70
2023/06/20 09:55:58;;;;;;;5.18;3.78;;;;;;;27.96;49.65;101348.41;6235162;28;20379;-69
2023/06/20 09:59:20;;;;;;;4.95;4.47;;;;;;;28.01;49.26;101351.34;6243963;28;20239;-68
2023/06/20 10:02:45;;;;;;;4.75;3.92;;;;;;;28.22;49.83;101337.75;6248835;28;20272;-69
2023/06/20 10:06:08;;;;;;;4.50;3.47;;;;;;;28.92;48.42;101341.31;6241261;28;20314;-69
2023/06/20 10:09:30;;;;;;;6.28;5.68;;;;;;;29.29;48.42;101350.16;6232165;28;20509;-69
2023/06/20 10:12:51;;;;;;;4.43;4.03;;;;;;;29.25;48.40;101339.81;6250227;28;20327;-69
2023/06/20 10:16:12;;;;;;;4.78;4.38;;;;;;;29.23;48.13;101342.00;6231268;28;20704;-69
2023/06/20 10:19:47;;;;;;;4.15;3.75;;;;;;;28.57;49.32;101345.22;6242141;28;20232;-69
2023/06/20 10:23:10;;;;;;;4.50;4.10;;;;;;;28.25;50.11;101340.03;6253045;28;20228;-67
2023/06/20 10:26:33;;;;;;;11.35;5.10;;;;;;;26.91;52.65;101347.16;6230895;28;20890;-69
2023/06/20 10:29:54;;;;;;;4.55;4.15;;;;;;;26.80;53.18;101361.75;6241394;28;20584;-69
2023/06/20 10:33:15;;;;;;;4.90;4.40;;;;;;;26.74;53.45;101355.19;6248421;28;20251;-69
2023/06/20 10:36:35;;;;;;;6.70;4.90;;;;;;;26.70;54.06;101353.13;6234678;28;20606;-69
2023/06/20 10:39:59;;;;;;;4.60;4.20;;;;;;;26.83;54.01;101352.97;6236995;28;20252;-70
2023/06/20 10:43:23;;;;;;;5.70;5.20;;;;;;;27.33;53.07;101346.13;6245379;28;20881;-69
2023/06/20 10:46:47;;;;;;;5.75;4.45;;;;;;;26.79;53.61;101348.97;6228153;28;20272;-70
2023/06/20 10:50:08;;;;;;;6.13;5.53;;;;;;;26.84;53.75;101343.59;6236478;28;20243;-70
2023/06/20 10:53:29;;;;;;;4.95;4.43;;;;;;;27.20;53.26;101340.81;6249964;28;20240;-70
2023/06/20 10:56:51;;;;;;;5.15;4.65;;;;;;;27.55;53.08;101335.44;6239486;28;20228;-70
2023/06/20 11:00:14;;;;;;;5.32;4.82;;;;;;;26.41;54.49;101338.09;6243882;28;20258;-69
2023/06/20 11:03:36;;;;;;;4.80;4.40;;;;;;;26.26;54.94;101328.47;6254691;28;20231;-70
2023/06/20 11:06:57;;;;;;;5.25;4.65;;;;;;;26.82;54.56;101326.38;6239644;28;20231;-69
2023/06/20 11:10:20;;;;;;;4.72;4.13;;;;;;;27.05;53.32;101320.97;6236645;28;20247;-70
2023/06/20 11:13:43;;;;;;;4.32;4.03;;;;;;;27.16;53.70;101322.13;6252364;28;20231;-70
2023/06/20 11:17:05;;;;;;;6.82;5.40;;;;;;;27.37;52.79;101313.34;6246909;28;20503;-70
2023/06/20 11:20:27;;;;;;;5.55;4.68;;;;;;;27.45;53.05;101310.22;6225573;28;20240;-70
2023/06/20 11:23:48;;;;;;;4.63;4.22;;;;;;;27.67;51.92;101309.44;6249847;28;20231;-70
2023/06/20 11:27:13;;;;;;;4.18;3.88;;;;;;;27.34;52.77;101305.44;6252954;28;20228;-70
2023/06/20 11:30:37;;;;;;;5.07;4.63;;;;;;;27.70;52.02;101310.88;6230621;28;20239;-69
2023/06/20 11:34:05;;;;;;;4.40;3.90;;;;;;;28.04;51.86;101299.00;6241264;28;20303;-71
2023/06/20 11:37:26;;;;;;;5.55;4.18;;;;;;;28.33;51.27;101302.75;6261228;28;20556;-69
2023/06/20 11:40:51;;;;;;;6.03;4.75;;;;;;;28.41;50.56;101294.09;6231022;28;21384;-71
2023/06/20 11:44:23;;;;;;;5.10;4.70;;;;;;;28.57;50.87;101304.47;6232856;28;21495;-69
2023/06/20 11:47:45;;;;;;;5.88;4.47;;;;;;;28.89;50.22;101299.31;6246213;28;20318;-68
2023/06/20 11:51:06;;;;;;;5.22;4.53;;;;;;;28.88;50.04;101292.06;6248094;28;20257;-69
2023/06/20 11:54:28;;;;;;;5.93;4.57;;;;;;;29.11;49.22;101290.06;6235948;28;20267;-69
2023/06/20 11:57:49;;;;;;;4.40;4.10;;;;;;;28.91;49.44;101292.44;6243385;28;20243;-69
2023/06/20 12:01:14;;;;;;;5.07;4.68;;;;;;;29.01;49.07;101286.22;6225344;28;20239;-69
2023/06/20 12:04:42;;;;;;;5.53;4.72;;;;;;;29.09;49.41;101294.16;6234361;28;20236;-70
2023/06/20 12:08:04;;;;;;;5.72;4.53;;;;;;;29.42;49.09;101285.94;6247211;28;20323;-70
2023/06/20 12:11:25;;;;;;;4.57;4.18;;;;;;;29.27;48.91;101271.75;6239445;28;20236;-69
2023/06/20 12:14:51;;;;;;;4.50;4.10;;;;;;;29.14;49.35;101272.88;6233882;28;20232;-70
2023/06/20 12:18:12;;;;;;;5.10;4.70;;;;;;;28.70;49.80;101279.22;6246302;28;20244;-69
2023/06/20 12:21:38;;;;;;;5.35;4.15;;;;;;;29.21;49.22;101268.06;6247775;28;20251;-69
2023/06/20 12:25:00;;;;;;;5.28;4.88;;;;;;;29.27;49.23;101266.19;6240956;28;20672;-71
2023/06/20 12:28:21;;;;;;;6.30;4.95;;;;;;;28.94;49.73;101264.16;6250352;28;20314;-71
2023/06/20 12:31:41;;;;;;;4.88;4.47;;;;;;;28.91;49.38;101264.66;6245170;28;20255;-70
2023/06/20 12:35:03;;;;;;;5.60;4.82;;;;;;;28.41;49.89;101260.78;6241892;28;20249;-69
2023/06/20 12:38:25;;;;;;;4.85;4.55;;;;;;;28.21;51.54;101265.84;6253921;28;20232;-69
2023/06/20 12:41:46;;;;;;;4.75;4.20;;;;;;;28.54;50.79;101257.72;6243609;28;20228;-70
2023/06/20 12:45:10;;;;;;;4.82;4.43;;;;;;;28.73;50.20;101250.94;6248651;28;20231;-70
2023/06/20 12:48:31;;;;;;;5.43;5.03;;;;;;;29.13;49.45;101250.91;6242853;28;20266;-70
2023/06/20 12:51:53;;;;;;;6.53;6.00;;;;;;;29.10;49.20;101254.19;6235129;28;20255;-70
2023/06/20 12:55:15;;;;;;;7.78;7.10;;;;;;;29.23;49.41;101245.56;6250462;28;20236;-70
2023/06/20 12:58:36;;;;;;;5.97;5.47;;;;;;;29.36;48.85;101238.84;6252356;28;20236;-70
2023/06/20 13:01:57;;;;;;;13.27;12.15;;;;;;;30.14;48.00;101233.22;6229612;28;20227;-69
2023/06/20 13:05:18;;;;;;;14.55;13.25;;;;;;;30.33;47.10;101238.25;6250162;28;20236;-69
2023/06/20 13:08:39;;;;;;;22.00;19.52;;;;;;;30.74;46.45;101242.41;6255374;28;20557;-70
2023/06/20 13:12:02;;;;;;;49.58;37.70;;;;;;;31.96;45.25;101240.59;6249585;28;20239;-69
2023/06/20 13:15:24;;;;;;;45.58;35.53;;;;;;;32.90;43.21;101227.44;6246452;28;20232;-69
2023/06/20 13:18:46;;;;;;;32.22;25.05;;;;;;;32.02;43.28;101235.94;6250244;28;20231;-69
2023/06/20 13:22:06;;;;;;;20.80;17.13;;;;;;;32.49;43.27;101233.97;6250412;28;20223;-69
2023/06/20 13:25:27;;;;;;;7.68;6.97;;;;;;;32.66;41.54;101228.19;6244982;28;20534;-69
2023/06/20 13:28:49;;;;;;;6.00;5.40;;;;;;;33.10;41.90;101223.88;6250972;28;20236;-69
2023/06/20 13:32:10;;;;;;;6.22;5.72;;;;;;;34.10;40.52;101220.28;6246825;28;20247;-70
2023/06/20 13:35:31;;;;;;;6.10;5.40;;;;;;;34.99;38.38;101223.06;6246334;28;21975;-70
2023/06/20 13:38:53;;;;;;;4.95;4.45;;;;;;;35.75;37.66;101214.09;6246012;28;20239;-69
2023/06/20 13:42:14;;;;;;;4.25;3.95;;;;;;;35.49;37.91;101223.84;6248505;28;20236;-69
2023/06/20 13:45:37;;;;;;;4.95;3.85;;;;;;;34.35;38.87;101224.97;6246929;28;20626;-69
2023/06/20 13:48:57;;;;;;;4.25;3.85;;;;;;;34.53;38.77;101221.56;6246985;28;20248;-69
2023/06/20 13:52:18;;;;;;;5.78;5.28;;;;;;;35.39;38.23;101219.13;6245948;28;20337;-69
2023/06/20 13:55:41;;;;;;;5.60;5.10;;;;;;;36.32;37.67;101216.06;6510086;22;20232;-70
2023/06/20 13:59:02;;;;;;;5.30;4.90;;;;;;;36.03;37.73;101208.50;6216572;28;20942;-69
2023/06/20 14:02:24;;;;;;;4.85;4.45;;;;;;;35.60;38.60;101208.63;6223855;28;20854;-70
2023/06/20 14:05:45;;;;;;;5.97;4.80;;;;;;;35.18;39.20;101212.84;6226313;28;21047;-70
2023/06/20 14:09:07;;;;;;;4.05;3.75;;;;;;;34.28;40.07;101208.47;6213401;28;20617;-69
2023/06/20 14:12:28;;;;;;;4.43;4.10;;;;;;;32.46;40.85;101198.22;6228288;28;20590;-70
2023/06/20 14:15:49;;;;;;;7.05;6.50;;;;;;;32.28;42.76;101196.72;6223158;28;20560;-70
2023/06/20 14:19:11;;;;;;;4.50;4.18;;;;;;;32.38;42.87;101190.34;6212754;28;22681;-69
2023/06/20 14:22:32;;;;;;;7.35;6.65;;;;;;;33.15;41.90;101186.72;6229224;28;21448;-69
2023/06/20 14:25:53;;;;;;;6.70;6.20;;;;;;;33.34;41.56;101188.69;6223399;28;20236;-69
2023/06/20 14:29:14;;;;;;;6.22;5.65;;;;;;;31.75;44.45;101176.56;6209673;28;20236;-69
2023/06/20 14:32:35;;;;;;;6.03;5.63;;;;;;;31.60;44.19;101176.44;6223382;28;20251;-70
2023/06/20 14:35:57;;;;;;;28.88;26.25;;;;;;;31.82;44.47;101166.00;6215953;28;20651;-70
2023/06/20 14:39:19;;;;;;;13.65;8.27;;;;;;;32.71;43.83;101162.00;6209938;28;20502;-69
2023/06/20 14:42:40;;;;;;;14.52;6.72;;;;;;;32.93;42.99;101154.22;6217041;28;20694;-71
2023/06/20 14:46:00;;;;;;;5.82;5.32;;;;;;;33.40;41.92;101153.19;6220950;28;20239;-69
2023/06/20 14:49:21;;;;;;;4.55;4.15;;;;;;;33.59;41.53;101154.28;6208269;28;20499;-70
2023/06/20 14:52:44;;;;;;;5.00;4.60;;;;;;;33.36;40.92;101138.91;6206333;28;20235;-70
2023/06/20 14:56:04;;;;;;;5.15;4.43;;;;;;;32.73;41.44;101137.41;6213584;28;20558;-68
2023/06/20 14:59:26;;;;;;;5.35;4.85;;;;;;;32.69;40.94;101138.28;6198406;28;20320;-68
2023/06/20 15:02:47;;;;;;;4.38;4.07;;;;;;;32.67;41.38;101141.31;6211343;28;20228;-68
2023/06/20 15:06:08;;;;;;;6.55;4.78;;;;;;;32.83;41.28;101120.69;6211585;28;20319;-68
2023/06/20 15:09:30;;;;;;;5.57;5.15;;;;;;;32.82;40.90;101121.78;6209927;28;20278;-68
2023/06/20 15:12:51;;;;;;;5.90;4.45;;;;;;;32.22;42.67;101122.44;6225804;28;20235;-69
2023/06/20 15:16:12;;;;;;;4.55;3.83;;;;;;;32.92;41.92;101121.81;6221770;28;20232;-68
2023/06/20 15:19:33;;;;;;;4.00;3.72;;;;;;;33.36;41.15;101113.72;6212509;28;20359;-68
2023/06/20 15:22:55;;;;;;;4.57;4.22;;;;;;;33.05;41.67;101100.88;6225667;28;20233;-69
2023/06/20 15:26:17;;;;;;;5.40;5.00;;;;;;;31.55;43.83;101099.16;6221972;28;20248;-68
2023/06/20 15:29:38;;;;;;;5.03;4.55;;;;;;;30.35;44.78;101098.88;6214822;28;20244;-69
2023/06/20 15:33:00;;;;;;;4.68;4.30;;;;;;;31.02;44.50;101086.19;6216862;28;20818;-69
2023/06/20 15:36:21;;;;;;;4.07;3.78;;;;;;;31.98;42.51;101084.94;6207927;28;20351;-68
2023/06/20 15:39:43;;;;;;;4.50;4.20;;;;;;;31.15;42.80;101088.53;6196273;28;20625;-69